Athens, Indiana
Current Conditions -  °F | °C
As of 1:15 AM on Saturday 01 Nov 2014 (Local Time) from KRCR Reporting Station
Broken Clouds Broken Clouds  
Wind Chill: 24°   Ceiling: 3500
Heat Index: 34°   Visibility: 10mi
Dew Point: 25°   Wind: 15mph
Humidity: 70%   Direction: 350°N
Pressure: 30.23"   Gusts: 22mph
Location:  41.05°N, 86.13°W
Report Text: KRCR 010515Z AUTO 35013G19KT 10SM BKN035 01/M04 A3023 RMK AO2
Loading
Personal Weather Stations






























Interactive Weather Map
Tropical Storm Tracking
New forecast layout! Learn more

10-Day Weather Forecast

Advertisements
Track Severe Weather on mobile